createdAt,value
2023-01-29T00:05:58.606Z,1024.04
2023-01-29T00:20:59.629Z,1023.81
2023-01-29T00:35:59.843Z,1023.58
2023-01-29T00:51:00.774Z,1023.68
2023-01-29T01:06:01.584Z,1023.83
2023-01-29T01:21:02.234Z,1023.60
2023-01-29T01:36:02.811Z,1023.68
2023-01-29T01:51:03.503Z,1023.47
2023-01-29T02:06:04.420Z,1023.27
2023-01-29T02:21:04.611Z,1023.15
2023-01-29T02:36:05.201Z,1023.23
2023-01-29T02:51:05.864Z,1023.22
2023-01-29T03:06:06.432Z,1023.02
2023-01-29T03:21:07.081Z,1023.00
2023-01-29T03:36:08.945Z,1022.67
2023-01-29T03:51:09.945Z,1022.51
2023-01-29T04:06:10.250Z,1022.15
2023-01-29T04:21:10.591Z,1022.06
2023-01-29T04:36:11.879Z,1022.07
2023-01-29T04:51:13.091Z,1022.07
2023-01-29T05:06:14.280Z,1022.08
2023-01-29T05:21:14.890Z,1022.00
2023-01-29T05:36:15.774Z,1022.18
2023-01-29T05:51:16.195Z,1022.15
2023-01-29T06:06:16.786Z,1022.20
2023-01-29T06:21:19.961Z,1022.07
2023-01-29T06:36:20.999Z,1022.07
2023-01-29T06:51:21.664Z,1022.12
2023-01-29T07:06:22.173Z,1022.04
2023-01-29T07:21:22.377Z,1022.21
2023-01-29T07:36:22.955Z,1022.22
2023-01-29T07:51:23.574Z,1021.85
2023-01-29T08:06:24.232Z,1021.73
2023-01-29T08:21:24.791Z,1021.73
2023-01-29T08:36:25.795Z,1021.64
2023-01-29T08:51:27.344Z,1021.61
2023-01-29T09:06:27.888Z,1021.61
2023-01-29T09:21:28.509Z,1021.52
2023-01-29T09:36:29.097Z,1021.43
2023-01-29T09:51:29.700Z,1021.20
2023-01-29T10:06:30.834Z,1021.04
2023-01-29T10:21:32.315Z,1021.08
2023-01-29T10:36:32.518Z,1021.02
2023-01-29T10:51:33.104Z,1020.65
2023-01-29T11:06:33.754Z,1020.23
2023-01-29T11:21:33.840Z,1020.10
2023-01-29T11:36:34.426Z,1019.95
2023-01-29T11:51:35.028Z,1019.84
2023-01-29T12:06:35.633Z,1019.73
2023-01-29T12:21:36.211Z,1019.55
2023-01-29T12:36:36.845Z,1019.29
2023-01-29T12:51:37.432Z,1019.12
2023-01-29T13:06:38.093Z,1019.07
2023-01-29T13:21:38.163Z,1019.00
2023-01-29T13:36:38.792Z,1018.73
2023-01-29T13:51:39.422Z,1018.69
2023-01-29T14:06:40.386Z,1018.43
2023-01-29T14:21:40.562Z,1018.40
2023-01-29T14:36:42.157Z,1018.24
2023-01-29T14:51:42.797Z,1018.22
2023-01-29T15:06:43.934Z,1017.97
2023-01-29T15:21:45.019Z,1017.79
2023-01-29T15:36:46.063Z,1017.48
2023-01-29T15:51:45.725Z,1017.52
2023-01-29T16:06:45.829Z,1017.33
2023-01-29T16:21:46.447Z,1017.23
2023-01-29T16:36:47.460Z,1017.14
2023-01-29T16:51:48.167Z,1017.11
2023-01-29T17:06:48.382Z,1016.93
2023-01-29T17:21:49.411Z,1016.70
2023-01-29T17:36:49.607Z,1016.49
2023-01-29T17:51:50.641Z,1016.09
2023-01-29T18:06:50.873Z,1016.01
2023-01-29T18:21:51.903Z,1015.75
2023-01-29T18:36:52.501Z,1015.83
2023-01-29T18:51:52.727Z,1015.68
2023-01-29T19:06:52.858Z,1015.37
2023-01-29T19:21:53.456Z,1015.05
2023-01-29T19:36:54.088Z,1014.85
2023-01-29T19:51:57.412Z,1014.68
2023-01-29T20:06:58.007Z,1014.26
2023-01-29T20:21:58.664Z,1014.03
2023-01-29T20:36:59.221Z,1013.82
2023-01-29T20:51:59.825Z,1013.60
2023-01-29T21:07:00.903Z,1013.16
2023-01-29T21:22:01.233Z,1012.94
2023-01-29T21:37:01.125Z,1012.66
2023-01-29T21:52:01.730Z,1012.45
2023-01-29T22:07:02.770Z,1012.36
2023-01-29T22:22:03.371Z,1011.92
2023-01-29T22:37:03.532Z,1011.65
2023-01-29T22:52:05.633Z,1011.11
2023-01-29T23:07:05.690Z,1011.00
2023-01-29T23:22:06.238Z,1010.60
2023-01-29T23:37:06.806Z,1010.35
2023-01-29T23:52:06.912Z,1010.08
